Time;durP1;ratioP1;P1;durP2;ratioP2;P2;SDS_P1;SDS_P2;PMS_P1;PMS_P2;Temp;Humidity;BMP_temperature;BMP_pressure;BME280_temperature;BME280_humidity;BME280_pressure;Samples;Min_cycle;Max_cycle;Signal;HPM_P1;HPM_P2
2022/08/16 00:03:11;;;;;;;14.77;11.38;;;21.50;99.90;;;;;;6240599;28;20293;-66
2022/08/16 00:06:19;;;;;;;19.25;12.38;;;21.50;99.90;;;;;;6241424;28;20285;-66
2022/08/16 00:09:26;;;;;;;17.48;12.38;;;21.50;99.90;;;;;;6240523;28;20297;-65
2022/08/16 00:12:33;;;;;;;12.73;11.45;;;21.50;99.90;;;;;;6241114;28;20264;-66
2022/08/16 00:15:42;;;;;;;13.80;11.98;;;21.40;99.90;;;;;;6239950;28;20276;-65
2022/08/16 00:18:58;;;;;;;14.98;12.27;;;21.40;99.90;;;;;;6240882;28;20308;-65
2022/08/16 00:22:04;;;;;;;13.70;12.40;;;21.40;99.90;;;;;;6240810;28;20271;-66
2022/08/16 00:25:22;;;;;;;13.82;12.48;;;21.40;99.90;;;;;;6240287;28;20303;-66
2022/08/16 00:28:47;;;;;;;12.98;11.82;;;21.40;99.90;;;;;;6239966;28;20326;-66
2022/08/16 00:32:04;;;;;;;16.10;12.18;;;21.30;99.90;;;;;;6240646;28;20276;-66
2022/08/16 00:35:15;;;;;;;13.43;12.10;;;21.40;99.90;;;;;;6238688;28;20495;-66
2022/08/16 00:38:21;;;;;;;18.45;12.30;;;21.40;99.90;;;;;;6239536;28;20348;-65
2022/08/16 00:41:49;;;;;;;15.82;12.35;;;21.40;99.90;;;;;;6240440;28;20272;-65
2022/08/16 00:44:58;;;;;;;13.70;12.15;;;21.40;99.90;;;;;;6239735;28;20300;-66
2022/08/16 00:48:11;;;;;;;13.10;11.80;;;21.40;99.90;;;;;;6239430;28;20464;-66
2022/08/16 00:51:36;;;;;;;13.73;12.32;;;21.40;99.90;;;;;;6239798;28;20276;-65
2022/08/16 00:54:42;;;;;;;16.05;12.57;;;21.40;99.90;;;;;;6239602;28;20304;-67
2022/08/16 00:57:53;;;;;;;16.13;11.82;;;21.40;99.90;;;;;;6239704;28;20276;-66
2022/08/16 01:01:06;;;;;;;13.43;12.15;;;21.30;99.90;;;;;;6239353;28;20457;-66
2022/08/16 01:04:20;;;;;;;14.90;13.07;;;21.30;99.90;;;;;;6238951;28;20300;-66
2022/08/16 01:07:35;;;;;;;14.27;12.88;;;21.30;99.90;;;;;;6239826;28;20272;-66
2022/08/16 01:10:57;;;;;;;14.68;12.88;;;21.30;99.90;;;;;;6238221;28;20379;-65
2022/08/16 01:14:11;;;;;;;17.30;12.25;;;21.30;99.90;;;;;;6266303;28;20295;-66
2022/08/16 01:17:19;;;;;;;14.48;13.02;;;21.30;99.90;;;;;;6264448;28;20277;-66
2022/08/16 01:20:32;;;;;;;16.88;12.90;;;21.40;99.90;;;;;;6240438;28;20607;-67
2022/08/16 01:23:59;;;;;;;16.60;12.18;;;21.30;99.90;;;;;;6238976;28;20304;-66
2022/08/16 01:27:11;;;;;;;17.00;12.48;;;21.20;99.90;;;;;;6270932;28;20268;-66
2022/08/16 01:30:23;;;;;;;15.77;13.25;;;21.30;99.90;;;;;;6238775;28;20296;-66
2022/08/16 01:33:31;;;;;;;14.85;13.25;;;21.20;99.90;;;;;;6237644;28;20288;-66
2022/08/16 01:36:40;;;;;;;13.35;12.13;;;21.30;99.90;;;;;;6237593;28;20556;-67
2022/08/16 01:39:47;;;;;;;13.40;12.15;;;21.20;99.90;;;;;;6237630;28;20296;-67
2022/08/16 01:42:52;;;;;;;22.10;12.90;;;21.20;99.90;;;;;;6238580;28;20277;-66
2022/08/16 01:46:03;;;;;;;15.38;13.27;;;21.20;99.90;;;;;;6237674;28;20292;-67
2022/08/16 01:49:33;;;;;;;18.17;13.20;;;21.20;99.90;;;;;;6237213;28;20473;-66
2022/08/16 01:52:58;;;;;;;17.83;12.48;;;21.20;99.90;;;;;;6237229;28;20296;-65
2022/08/16 01:56:22;;;;;;;14.38;12.77;;;21.20;99.90;;;;;;6237326;28;20276;-66
2022/08/16 01:59:33;;;;;;;17.35;13.80;;;21.20;99.90;;;;;;6237037;28;20604;-66
2022/08/16 02:02:38;;;;;;;15.90;12.68;;;21.20;99.90;;;;;;6236550;28;20276;-66
2022/08/16 02:05:47;;;;;;;16.73;13.35;;;21.20;99.90;;;;;;6238288;28;20292;-66
2022/08/16 02:08:57;;;;;;;13.90;12.50;;;21.20;99.90;;;;;;6237613;28;20478;-65
2022/08/16 02:12:07;;;;;;;16.25;13.32;;;21.20;99.90;;;;;;6237020;28;20269;-66
2022/08/16 02:15:35;;;;;;;17.80;14.25;;;21.10;99.90;;;;;;6237710;28;20332;-66
2022/08/16 02:18:49;;;;;;;14.88;13.27;;;21.10;99.90;;;;;;6236519;28;20324;-66
2022/08/16 02:21:56;;;;;;;15.10;13.23;;;21.20;99.90;;;;;;6268619;28;20276;-66
2022/08/16 02:25:21;;;;;;;14.23;12.80;;;21.10;99.90;;;;;;6237367;28;20300;-67
2022/08/16 02:28:28;;;;;;;19.05;13.45;;;21.10;99.90;;;;;;6237233;28;20482;-66
2022/08/16 02:31:35;;;;;;;15.35;12.63;;;21.10;99.90;;;;;;6237174;28;20272;-65
2022/08/16 02:35:01;;;;;;;19.15;12.68;;;21.10;99.90;;;;;;6235892;28;20292;-66
2022/08/16 02:38:08;;;;;;;18.27;12.95;;;21.10;99.90;;;;;;6235602;28;20295;-67
2022/08/16 02:41:15;;;;;;;15.25;13.15;;;21.10;99.90;;;;;;6269131;28;20451;-68
2022/08/16 02:44:24;;;;;;;14.90;12.73;;;21.10;99.90;;;;;;6235964;28;20296;-66
2022/08/16 02:47:33;;;;;;;16.40;13.05;;;21.10;99.90;;;;;;6236146;28;20470;-66
2022/08/16 02:51:00;;;;;;;18.63;13.20;;;21.10;99.90;;;;;;6251757;28;20276;-66
2022/08/16 02:54:17;;;;;;;15.95;13.80;;;21.10;99.90;;;;;;6235703;28;20484;-66
2022/08/16 02:57:29;;;;;;;16.95;13.15;;;21.10;99.90;;;;;;6236329;28;20276;-66
2022/08/16 03:00:37;;;;;;;15.05;13.48;;;21.10;99.90;;;;;;6251803;28;20301;-67
2022/08/16 03:03:50;;;;;;;16.48;13.65;;;21.10;99.90;;;;;;6277137;28;20478;-67
2022/08/16 03:07:15;;;;;;;14.27;12.27;;;21.10;99.90;;;;;;6259662;28;20304;-69
2022/08/16 03:10:33;;;;;;;15.07;13.25;;;21.10;99.90;;;;;;6260804;28;20260;-67
2022/08/16 03:13:40;;;;;;;14.85;13.35;;;21.00;99.90;;;;;;6276240;28;20299;-65
2022/08/16 03:16:49;;;;;;;16.33;12.23;;;21.00;99.90;;;;;;6260159;28;20275;-66
2022/08/16 03:20:13;;;;;;;14.68;13.05;;;21.00;99.90;;;;;;6275304;28;20292;-66
2022/08/16 03:23:23;;;;;;;15.70;13.32;;;21.00;99.90;;;;;;6247306;28;20300;-66
2022/08/16 03:26:28;;;;;;;17.30;13.85;;;20.90;99.90;;;;;;6235246;28;20296;-65
2022/08/16 03:29:36;;;;;;;18.58;13.60;;;21.00;99.90;;;;;;6235431;28;20323;-66
2022/08/16 03:32:49;;;;;;;14.25;12.75;;;21.00;99.90;;;;;;6234800;28;20478;-68
2022/08/16 03:35:58;;;;;;;16.85;12.95;;;21.00;99.90;;;;;;6235181;28;20268;-67
2022/08/16 03:39:30;;;;;;;19.70;13.80;;;21.00;99.90;;;;;;6234570;28;20300;-66
2022/08/16 03:42:36;;;;;;;18.90;14.13;;;21.00;99.90;;;;;;6234916;28;20292;-66
2022/08/16 03:46:02;;;;;;;20.10;14.00;;;21.00;99.90;;;;;;6235565;28;20459;-66
2022/08/16 03:49:13;;;;;;;16.02;13.65;;;21.00;99.90;;;;;;6234735;28;20301;-67
2022/08/16 03:52:23;;;;;;;19.73;13.15;;;21.00;99.90;;;;;;6234882;28;20292;-67
2022/08/16 03:55:37;;;;;;;17.98;12.88;;;21.00;99.90;;;;;;6236166;28;20272;-66
2022/08/16 03:58:50;;;;;;;19.00;13.10;;;21.00;99.90;;;;;;6234603;28;20304;-67
2022/08/16 04:01:57;;;;;;;17.88;12.93;;;21.00;99.90;;;;;;6235114;28;20456;-67
2022/08/16 04:05:05;;;;;;;23.13;13.10;;;21.00;99.90;;;;;;6236415;28;20535;-66
2022/08/16 04:08:15;;;;;;;16.25;12.55;;;21.10;99.90;;;;;;6235698;28;20319;-66
2022/08/16 04:11:32;;;;;;;25.10;12.73;;;21.20;99.90;;;;;;6250844;28;20268;-65
2022/08/16 04:14:42;;;;;;;15.90;12.82;;;21.20;99.90;;;;;;6234745;28;20292;-65
2022/08/16 04:17:53;;;;;;;21.23;11.95;;;21.30;99.90;;;;;;6234449;28;20320;-66
2022/08/16 04:21:00;;;;;;;16.38;12.88;;;21.40;99.90;;;;;;6235212;28;20276;-66
2022/08/16 04:24:11;;;;;;;14.65;12.05;;;21.40;99.90;;;;;;6250305;28;20316;-66
2022/08/16 04:27:17;;;;;;;28.80;12.50;;;21.40;99.90;;;;;;6234476;28;20292;-67
2022/08/16 04:30:23;;;;;;;23.85;12.18;;;21.40;99.90;;;;;;6226459;28;20269;-66
2022/08/16 04:33:40;;;;;;;18.02;12.02;;;21.50;99.90;;;;;;6256984;28;20356;-67
2022/08/16 04:37:01;;;;;;;19.38;12.25;;;21.60;99.90;;;;;;6266292;28;20272;-68
2022/08/16 04:40:13;;;;;;;20.65;12.70;;;21.60;99.90;;;;;;6267543;28;20268;-66
2022/08/16 04:43:27;;;;;;;16.25;12.05;;;21.70;99.90;;;;;;6234251;28;20617;-66
2022/08/16 04:46:35;;;;;;;22.02;13.18;;;21.70;99.90;;;;;;6237241;28;20283;-65
2022/08/16 04:50:01;;;;;;;18.15;12.63;;;21.70;99.90;;;;;;6270736;28;20286;-65
2022/08/16 04:53:11;;;;;;;20.50;12.40;;;21.70;99.90;;;;;;6238023;28;20301;-66
2022/08/16 04:56:21;;;;;;;18.35;11.73;;;21.80;99.90;;;;;;6272061;28;20276;-66
2022/08/16 04:59:29;;;;;;;34.58;12.63;;;21.80;99.90;;;;;;6237964;28;20313;-66
2022/08/16 05:02:35;;;;;;;18.80;12.75;;;21.90;99.90;;;;;;6237808;28;20288;-67
2022/08/16 05:05:48;;;;;;;22.98;11.90;;;22.00;99.90;;;;;;6238441;28;20272;-66
2022/08/16 05:09:02;;;;;;;28.00;11.60;;;22.00;99.90;;;;;;6271056;28;20320;-66
2022/08/16 05:12:08;;;;;;;24.05;12.77;;;22.00;99.90;;;;;;6259733;28;20283;-67
2022/08/16 05:15:16;;;;;;;26.75;12.98;;;22.10;99.90;;;;;;6262964;28;20272;-67
2022/08/16 05:18:22;;;;;;;22.15;11.68;;;22.20;99.90;;;;;;6263179;28;20591;-66
2022/08/16 05:21:34;;;;;;;27.55;12.27;;;22.20;99.90;;;;;;6279344;28;20335;-68
2022/08/16 05:24:46;;;;;;;16.25;11.27;;;22.20;99.90;;;;;;6262283;28;20344;-66
2022/08/16 05:27:51;;;;;;;24.30;12.20;;;22.30;99.90;;;;;;6278269;28;20304;-66
2022/08/16 05:30:58;;;;;;;24.88;12.32;;;22.40;99.90;;;;;;6262111;28;20272;-67
2022/08/16 05:34:06;;;;;;;22.00;11.93;;;22.40;99.90;;;;;;6261722;28;20428;-66
2022/08/16 05:37:25;;;;;;;23.90;12.10;;;22.50;99.90;;;;;;6261443;28;20350;-66
2022/08/16 05:40:47;;;;;;;20.67;12.10;;;22.50;99.90;;;;;;6261673;28;20556;-66
2022/08/16 05:44:07;;;;;;;26.13;12.77;;;22.60;99.90;;;;;;6261199;28;20599;-67
2022/08/16 05:47:30;;;;;;;20.27;12.50;;;22.70;99.90;;;;;;6261526;28;20295;-67
2022/08/16 05:50:36;;;;;;;32.13;12.77;;;22.70;99.90;;;;;;6261805;28;20272;-66
2022/08/16 05:53:46;;;;;;;23.73;12.25;;;22.70;99.90;;;;;;6261455;28;20292;-67
2022/08/16 05:56:57;;;;;;;15.25;11.82;;;22.80;99.90;;;;;;6261774;28;20276;-67
2022/08/16 06:00:08;;;;;;;19.23;12.35;;;22.90;99.90;;;;;;6276842;28;20279;-67
2022/08/16 06:03:19;;;;;;;22.77;12.38;;;23.00;99.90;;;;;;6262215;28;20478;-66
2022/08/16 06:06:38;;;;;;;15.93;11.85;;;23.00;99.90;;;;;;6277709;28;20272;-66
2022/08/16 06:09:45;;;;;;;18.13;11.57;;;23.10;99.90;;;;;;6277078;28;20468;-66
2022/08/16 06:12:53;;;;;;;23.50;11.93;;;23.20;99.90;;;;;;6269721;28;20462;-66
2022/08/16 06:16:00;;;;;;;29.10;12.65;;;23.20;99.90;;;;;;6236931;28;20272;-67
2022/08/16 06:19:06;;;;;;;23.15;12.13;;;23.30;99.90;;;;;;6236992;28;20588;-67
2022/08/16 06:22:17;;;;;;;24.67;10.68;;;23.40;99.90;;;;;;6236392;28;20292;-66
2022/08/16 06:25:42;;;;;;;17.05;11.27;;;23.50;99.90;;;;;;6236749;28;20273;-66
2022/08/16 06:28:59;;;;;;;18.05;10.98;;;23.60;99.90;;;;;;6236276;28;20300;-67
2022/08/16 06:32:13;;;;;;;29.73;11.88;;;23.70;99.90;;;;;;6235813;28;20276;-65
2022/08/16 06:35:32;;;;;;;23.17;10.70;;;23.90;99.90;;;;;;6236392;28;20276;-66
2022/08/16 06:38:45;;;;;;;19.65;11.48;;;24.00;99.90;;;;;;6235998;28;20304;-66
2022/08/16 06:42:21;;;;;;;21.75;10.65;;;24.10;99.90;;;;;;6232388;28;20506;-66
2022/08/16 06:45:55;;;;;;;18.48;10.77;;;24.30;99.90;;;;;;6228826;28;20276;-67
2022/08/16 06:49:09;;;;;;;20.17;10.95;;;24.50;99.90;;;;;;6251338;28;20540;-67
2022/08/16 06:52:15;;;;;;;19.10;10.45;;;24.50;99.90;;;;;;6236808;28;20296;-66
2022/08/16 06:55:43;;;;;;;24.20;11.35;;;24.60;99.90;;;;;;6236194;28;20276;-66
2022/08/16 06:58:52;;;;;;;21.80;11.27;;;24.80;99.90;;;;;;6235663;28;20300;-67
2022/08/16 07:02:03;;;;;;;20.42;11.27;;;24.90;99.90;;;;;;6235573;28;20575;-67
2022/08/16 07:05:30;;;;;;;19.38;11.50;;;25.00;99.90;;;;;;6235645;28;20269;-67
2022/08/16 07:08:56;;;;;;;18.75;11.15;;;25.10;99.90;;;;;;6235125;28;20312;-67
2022/08/16 07:12:05;;;;;;;18.13;10.80;;;25.20;99.90;;;;;;6235123;28;20264;-66
2022/08/16 07:15:15;;;;;;;21.85;11.18;;;25.30;99.90;;;;;;6235680;28;20276;-66
2022/08/16 07:18:25;;;;;;;18.20;10.77;;;25.40;99.90;;;;;;6235402;28;20296;-67
2022/08/16 07:21:32;;;;;;;13.15;10.80;;;25.50;99.90;;;;;;6235946;28;20272;-66
2022/08/16 07:24:57;;;;;;;22.60;11.43;;;25.50;99.90;;;;;;6234584;28;20305;-66
2022/08/16 07:28:05;;;;;;;18.77;10.48;;;25.60;99.90;;;;;;6234909;28;20308;-66
2022/08/16 07:31:18;;;;;;;14.23;10.98;;;25.70;99.90;;;;;;6235530;28;20296;-67
2022/08/16 07:34:27;;;;;;;16.75;10.25;;;25.80;99.90;;;;;;6235219;28;20299;-66
2022/08/16 07:37:40;;;;;;;31.77;10.73;;;25.80;99.90;;;;;;6234932;28;20300;-67
2022/08/16 07:41:02;;;;;;;15.88;10.75;;;25.90;99.90;;;;;;6235270;28;20277;-67
2022/08/16 07:44:17;;;;;;;17.33;11.05;;;26.00;99.90;;;;;;6251108;28;20375;-66
2022/08/16 07:47:28;;;;;;;13.98;10.13;;;26.00;99.90;;;;;;6234826;28;20297;-66
2022/08/16 07:50:37;;;;;;;18.88;9.90;;;26.00;99.90;;;;;;6235302;28;20318;-66
2022/08/16 07:54:04;;;;;;;23.48;10.63;;;26.00;99.90;;;;;;6234491;28;20292;-67
2022/08/16 07:57:20;;;;;;;24.27;10.63;;;26.00;99.90;;;;;;6250658;28;20291;-67
2022/08/16 08:00:29;;;;;;;22.60;10.70;;;26.10;99.90;;;;;;6235236;28;20280;-67
2022/08/16 08:03:35;;;;;;;15.82;9.60;;;26.20;99.90;;;;;;6234721;28;20307;-67
2022/08/16 08:06:50;;;;;;;19.75;10.25;;;26.20;99.90;;;;;;6235278;28;20280;-67
2022/08/16 08:09:56;;;;;;;21.83;10.07;;;26.30;99.90;;;;;;6250534;28;20284;-67
2022/08/16 08:13:03;;;;;;;18.00;9.38;;;26.20;99.90;;;;;;6244927;28;20299;-66
2022/08/16 08:16:11;;;;;;;11.85;9.63;;;26.30;99.90;;;;;;6275174;28;20574;-66
2022/08/16 08:19:25;;;;;;;17.63;9.18;;;26.30;99.90;;;;;;6258763;28;20483;-67
2022/08/16 08:22:32;;;;;;;19.05;9.93;;;26.30;99.90;;;;;;6263812;28;20300;-67
2022/08/16 08:25:41;;;;;;;13.85;8.63;;;26.30;99.90;;;;;;6264730;28;20268;-67
2022/08/16 08:29:01;;;;;;;14.18;9.18;;;26.30;99.90;;;;;;6279818;28;20451;-66
2022/08/16 08:32:08;;;;;;;9.65;8.80;;;26.30;99.90;;;;;;6262930;28;20323;-66
2022/08/16 08:35:39;;;;;;;20.92;9.18;;;26.30;99.90;;;;;;6279759;28;20272;-66
2022/08/16 08:38:51;;;;;;;17.23;9.27;;;26.30;99.90;;;;;;6262700;28;20452;-66
2022/08/16 08:41:57;;;;;;;25.88;9.25;;;26.30;99.90;;;;;;6296051;28;20275;-66
2022/08/16 08:45:02;;;;;;;13.45;8.23;;;26.40;99.90;;;;;;6296418;28;20272;-67
2022/08/16 08:48:09;;;;;;;9.77;8.77;;;26.40;99.90;;;;;;6262770;28;20307;-67
2022/08/16 08:51:35;;;;;;;11.27;8.63;;;26.40;99.90;;;;;;6296440;28;20292;-67
2022/08/16 08:54:46;;;;;;;17.90;8.57;;;26.40;99.90;;;;;;6295734;28;20295;-67
2022/08/16 08:57:54;;;;;;;11.80;8.27;;;26.50;99.90;;;;;;6295795;28;20291;-67
2022/08/16 09:01:27;;;;;;;12.50;8.65;;;26.50;99.90;;;;;;6264089;28;20272;-67
2022/08/16 09:04:41;;;;;;;18.77;8.85;;;26.60;99.90;;;;;;6262415;28;20299;-66
2022/08/16 09:07:54;;;;;;;10.98;8.20;;;26.60;99.90;;;;;;6279103;28;20287;-67
2022/08/16 09:11:22;;;;;;;18.77;8.82;;;26.70;99.90;;;;;;6279219;28;20287;-67
2022/08/16 09:14:45;;;;;;;14.75;8.48;;;26.70;99.90;;;;;;6295134;28;20320;-67
2022/08/16 09:17:59;;;;;;;13.98;9.20;;;26.70;99.90;;;;;;6262112;28;20311;-67
2022/08/16 09:21:26;;;;;;;12.95;9.10;;;26.80;99.90;;;;;;6262769;28;20287;-67
2022/08/16 09:24:35;;;;;;;13.55;8.80;;;26.80;99.90;;;;;;6262364;28;20383;-67
2022/08/16 09:27:59;;;;;;;18.90;9.18;;;26.80;99.90;;;;;;6262330;28;20299;-66
2022/08/16 09:31:13;;;;;;;14.20;9.32;;;26.80;99.90;;;;;;6278515;28;20291;-66
2022/08/16 09:34:18;;;;;;;14.77;8.93;;;26.80;99.90;;;;;;6263398;28;20295;-65
2022/08/16 09:37:24;;;;;;;19.17;9.68;;;26.80;99.90;;;;;;6263150;28;20595;-65
2022/08/16 09:40:34;;;;;;;16.75;9.65;;;26.70;99.90;;;;;;6263957;28;20568;-67
2022/08/16 09:43:49;;;;;;;13.57;9.80;;;26.60;99.90;;;;;;6262866;28;20291;-66
2022/08/16 09:47:05;;;;;;;18.15;11.07;;;26.60;99.90;;;;;;6262833;28;20272;-67
2022/08/16 09:50:14;;;;;;;14.75;10.02;;;26.50;99.90;;;;;;6263476;28;20276;-67
2022/08/16 09:53:29;;;;;;;28.13;10.43;;;26.50;99.90;;;;;;6262679;28;20300;-67
2022/08/16 09:56:35;;;;;;;15.63;9.48;;;26.50;99.90;;;;;;6263043;28;20451;-67
2022/08/16 09:59:42;;;;;;;10.35;9.07;;;26.50;99.90;;;;;;6262881;28;20295;-66
2022/08/16 10:02:47;;;;;;;13.70;9.30;;;26.40;99.90;;;;;;6262644;28;20295;-67
2022/08/16 10:05:53;;;;;;;16.02;9.82;;;26.50;99.90;;;;;;6262302;28;20292;-67
2022/08/16 10:08:59;;;;;;;21.85;10.07;;;26.50;99.90;;;;;;6262264;28;20295;-67
2022/08/16 10:15:40;;;;;;;15.32;9.02;;;26.50;99.90;;;;;;6262631;28;20272;-67
2022/08/16 10:18:46;;;;;;;14.93;8.95;;;26.40;99.90;;;;;;6261665;28;20304;-66
2022/08/16 10:22:11;;;;;;;19.17;8.57;;;26.40;99.90;;;;;;6261345;28;20275;-66
2022/08/16 10:25:17;;;;;;;10.32;9.20;;;26.50;99.90;;;;;;6262324;28;20487;-66
2022/08/16 10:28:42;;;;;;;16.40;9.02;;;26.60;99.90;;;;;;6261861;28;20594;-66
2022/08/16 10:31:49;;;;;;;12.13;8.52;;;26.70;99.90;;;;;;6262417;28;20291;-66
2022/08/16 10:34:57;;;;;;;16.23;9.52;;;26.80;99.90;;;;;;6261328;28;20279;-66
2022/08/16 10:38:03;;;;;;;11.65;8.85;;;26.90;99.90;;;;;;6261183;28;20307;-66
2022/08/16 10:41:12;;;;;;;13.98;9.43;;;26.90;99.90;;;;;;6261725;28;20272;-66
2022/08/16 10:44:21;;;;;;;10.02;8.13;;;26.90;99.90;;;;;;6260788;28;20300;-67
2022/08/16 10:47:28;;;;;;;12.60;8.73;;;26.80;99.90;;;;;;6261933;28;20299;-68
2022/08/16 10:50:43;;;;;;;17.63;8.07;;;26.80;99.70;;;;;;6261992;28;20276;-66
2022/08/16 10:53:48;;;;;;;9.50;8.48;;;26.80;99.40;;;;;;6261400;28;20299;-67
2022/08/16 10:56:55;;;;;;;14.40;9.10;;;26.80;99.90;;;;;;6261554;28;20555;-66
2022/08/16 11:00:03;;;;;;;9.18;8.48;;;26.80;99.90;;;;;;6260827;28;20361;-66
2022/08/16 11:03:16;;;;;;;10.15;8.30;;;26.80;99.90;;;;;;6260677;28;20295;-66
2022/08/16 11:06:41;;;;;;;16.40;8.30;;;27.00;99.90;;;;;;6261041;28;20277;-66
2022/08/16 11:10:10;;;;;;;15.35;8.75;;;27.20;99.50;;;;;;6260780;28;20280;-66
2022/08/16 11:13:35;;;;;;;10.75;7.90;;;27.30;99.20;;;;;;6260428;28;20299;-67
2022/08/16 11:17:01;;;;;;;21.30;7.50;;;27.40;97.10;;;;;;6260616;28;20276;-66
2022/08/16 11:20:16;;;;;;;10.48;7.72;;;27.60;96.80;;;;;;6261309;28;20268;-66
2022/08/16 11:23:42;;;;;;;12.77;7.60;;;27.70;96.00;;;;;;6260770;28;20487;-66
2022/08/16 11:27:02;;;;;;;10.20;7.90;;;27.60;96.00;;;;;;6260321;28;20273;-66
2022/08/16 11:30:26;;;;;;;11.02;8.07;;;27.60;96.10;;;;;;6260752;28;20275;-66
2022/08/16 11:33:42;;;;;;;12.43;8.55;;;27.70;96.50;;;;;;6260357;28;20304;-67
2022/08/16 11:37:05;;;;;;;16.45;8.38;;;27.70;97.30;;;;;;6260108;28;20312;-67
2022/08/16 11:40:13;;;;;;;10.68;8.30;;;27.60;97.20;;;;;;6261000;28;20459;-67
2022/08/16 11:43:26;;;;;;;17.23;8.18;;;27.60;97.80;;;;;;6259116;28;20304;-67
2022/08/16 11:46:34;;;;;;;14.38;8.20;;;27.70;97.40;;;;;;6261064;28;20268;-67
2022/08/16 11:49:50;;;;;;;8.63;7.78;;;27.70;97.00;;;;;;6260000;28;20295;-67
2022/08/16 11:52:58;;;;;;;14.65;8.15;;;27.60;95.90;;;;;;6260313;28;20299;-67
2022/08/16 11:56:07;;;;;;;20.88;7.93;;;27.60;95.60;;;;;;6265074;28;20276;-67
2022/08/16 11:59:13;;;;;;;10.63;8.13;;;27.60;96.30;;;;;;6265159;28;20300;-68
2022/08/16 12:02:19;;;;;;;19.08;8.32;;;27.60;96.30;;;;;;6265115;28;20295;-66
2022/08/16 12:05:38;;;;;;;20.50;9.00;;;27.60;97.00;;;;;;6265811;28;20271;-66
2022/08/16 12:08:46;;;;;;;16.50;9.18;;;27.70;97.20;;;;;;6265584;28;20300;-67
2022/08/16 12:11:51;;;;;;;19.00;9.25;;;27.70;97.60;;;;;;6265549;28;20269;-66
2022/08/16 12:14:57;;;;;;;11.20;9.38;;;27.70;98.80;;;;;;6264863;28;20295;-67
2022/08/16 12:18:04;;;;;;;15.05;8.95;;;27.50;99.00;;;;;;6265323;28;20296;-67
2022/08/16 12:21:11;;;;;;;15.55;10.02;;;27.40;98.90;;;;;;6265474;28;20272;-66
2022/08/16 12:24:17;;;;;;;17.05;9.43;;;27.30;99.40;;;;;;6264904;28;20311;-67
2022/08/16 12:27:24;;;;;;;16.88;9.82;;;27.30;98.90;;;;;;6264699;28;20291;-66
2022/08/16 12:30:34;;;;;;;14.73;9.63;;;27.40;98.60;;;;;;6265463;28;20276;-66
2022/08/16 12:33:43;;;;;;;14.32;9.15;;;27.50;98.40;;;;;;6264847;28;20295;-66
2022/08/16 12:36:49;;;;;;;19.90;10.20;;;27.50;98.40;;;;;;6265173;28;20271;-66
2022/08/16 12:39:56;;;;;;;13.60;9.23;;;27.50;98.30;;;;;;6264665;28;20590;-66
2022/08/16 12:43:05;;;;;;;13.40;9.32;;;27.50;98.60;;;;;;6263937;28;20299;-66
2022/08/16 12:46:12;;;;;;;12.32;9.10;;;27.50;98.70;;;;;;6264282;28;20575;-67
2022/08/16 12:49:18;;;;;;;28.25;9.48;;;27.50;98.40;;;;;;6264380;28;20300;-67
2022/08/16 12:52:26;;;;;;;23.17;10.02;;;27.60;98.40;;;;;;6264011;28;20299;-66
2022/08/16 12:55:40;;;;;;;15.48;9.18;;;27.70;98.60;;;;;;6263129;28;20291;-66
2022/08/16 12:58:49;;;;;;;12.60;9.48;;;27.70;98.10;;;;;;6263792;28;20299;-66
2022/08/16 13:01:58;;;;;;;15.38;9.55;;;27.60;97.70;;;;;;6263588;28;20276;-68
2022/08/16 13:05:05;;;;;;;17.00;8.90;;;27.70;98.40;;;;;;6296270;28;20367;-67
2022/08/16 13:08:15;;;;;;;13.05;8.85;;;27.70;97.10;;;;;;6263548;28;20591;-67
2022/08/16 13:11:35;;;;;;;13.60;8.88;;;27.80;96.50;;;;;;6263737;28;20283;-67
2022/08/16 13:14:43;;;;;;;24.65;8.75;;;27.80;96.00;;;;;;6263924;28;20559;-66
2022/08/16 13:17:49;;;;;;;16.65;9.00;;;27.80;96.00;;;;;;6263691;28;20463;-67
2022/08/16 13:20:54;;;;;;;18.25;9.38;;;27.80;96.90;;;;;;6264125;28;20263;-66
2022/08/16 13:24:01;;;;;;;12.45;9.32;;;27.70;96.70;;;;;;6263577;28;20303;-66
2022/08/16 13:27:11;;;;;;;11.18;9.18;;;27.70;97.60;;;;;;6262990;28;20276;-67
2022/08/16 13:30:17;;;;;;;13.63;10.18;;;27.60;97.90;;;;;;6263956;28;20268;-67
2022/08/16 13:33:40;;;;;;;12.82;9.68;;;27.50;98.80;;;;;;6263138;28;20308;-67
2022/08/16 13:36:46;;;;;;;14.75;9.68;;;27.50;98.50;;;;;;6278167;28;20271;-67
2022/08/16 13:39:57;;;;;;;11.00;9.68;;;27.50;98.80;;;;;;6277927;28;20276;-66
2022/08/16 13:43:04;;;;;;;10.45;9.60;;;27.60;99.00;;;;;;6263449;28;20483;-67
2022/08/16 13:46:15;;;;;;;14.90;9.73;;;27.60;99.20;;;;;;6263533;28;20563;-66
2022/08/16 13:49:20;;;;;;;13.13;9.48;;;27.60;98.50;;;;;;6262831;28;20342;-68
2022/08/16 13:52:27;;;;;;;13.32;9.80;;;27.50;97.90;;;;;;6262888;28;20291;-67
2022/08/16 13:55:38;;;;;;;10.23;9.32;;;27.60;97.80;;;;;;6263510;28;20308;-66
2022/08/16 13:58:46;;;;;;;13.52;9.05;;;27.70;98.00;;;;;;6262155;28;20295;-66
2022/08/16 14:02:15;;;;;;;15.15;9.05;;;27.70;97.60;;;;;;6211553;23;20312;-66
2022/08/16 14:05:22;;;;;;;10.65;9.57;;;27.60;97.00;;;;;;6176811;28;20275;-66
2022/08/16 14:08:27;;;;;;;12.43;8.95;;;27.60;97.20;;;;;;6167945;28;20298;-67
2022/08/16 14:11:32;;;;;;;19.50;9.25;;;27.50;96.80;;;;;;6189292;28;20459;-67
2022/08/16 14:14:39;;;;;;;11.90;9.88;;;27.60;96.90;;;;;;6188616;28;20321;-66
2022/08/16 14:17:45;;;;;;;10.75;9.63;;;27.50;97.20;;;;;;6178036;28;20294;-66
2022/08/16 14:21:10;;;;;;;12.23;9.55;;;27.50;97.40;;;;;;6164751;29;20279;-67
2022/08/16 14:24:17;;;;;;;20.55;9.77;;;27.40;97.80;;;;;;6164500;28;20302;-66
2022/08/16 14:27:34;;;;;;;10.70;9.70;;;27.30;97.50;;;;;;6164828;28;20586;-67
2022/08/16 14:30:47;;;;;;;13.73;10.13;;;27.30;97.70;;;;;;6164835;29;20279;-67
2022/08/16 14:33:52;;;;;;;11.15;10.00;;;27.30;98.20;;;;;;6165817;28;20415;-67
2022/08/16 14:36:58;;;;;;;14.75;10.40;;;27.30;98.10;;;;;;6188453;28;20293;-65
2022/08/16 14:40:05;;;;;;;11.95;10.15;;;27.30;98.00;;;;;;6188754;28;20274;-67
2022/08/16 14:43:12;;;;;;;10.75;9.85;;;27.20;98.10;;;;;;6188002;28;20298;-66
2022/08/16 14:46:21;;;;;;;16.65;9.90;;;27.10;98.40;;;;;;6188570;28;20297;-66
2022/08/16 14:49:26;;;;;;;15.02;10.23;;;27.10;98.40;;;;;;6187737;28;20293;-66
2022/08/16 14:52:32;;;;;;;14.05;10.02;;;27.20;98.10;;;;;;6187871;28;20297;-67
2022/08/16 14:55:57;;;;;;;10.38;9.25;;;27.10;98.20;;;;;;6188176;28;20298;-67
2022/08/16 14:59:02;;;;;;;12.80;9.90;;;27.00;98.50;;;;;;6187179;28;20302;-66
2022/08/16 15:02:14;;;;;;;13.98;9.63;;;27.10;97.80;;;;;;6187179;28;20302;-67
2022/08/16 15:05:40;;;;;;;17.23;9.80;;;27.10;97.90;;;;;;6187513;28;20273;-67
2022/08/16 15:08:45;;;;;;;13.73;9.10;;;27.20;97.60;;;;;;6179780;28;20298;-66
2022/08/16 15:11:50;;;;;;;14.23;10.40;;;27.20;97.70;;;;;;6163616;29;20274;-66
2022/08/16 15:14:55;;;;;;;9.95;9.18;;;27.30;97.70;;;;;;6163610;28;20306;-67
2022/08/16 15:18:02;;;;;;;18.25;9.60;;;27.30;97.70;;;;;;6163457;28;20298;-66
2022/08/16 15:21:09;;;;;;;14.75;9.18;;;27.20;97.10;;;;;;6162122;29;20274;-66
2022/08/16 15:24:15;;;;;;;16.67;9.60;;;27.00;96.90;;;;;;6163146;28;20302;-66
2022/08/16 15:27:27;;;;;;;15.15;9.85;;;27.00;97.10;;;;;;6163539;28;20318;-67
2022/08/16 15:30:41;;;;;;;14.23;9.55;;;26.90;97.60;;;;;;6162988;28;20279;-66
2022/08/16 15:34:06;;;;;;;19.02;10.15;;;26.80;97.80;;;;;;6163057;28;20298;-65
2022/08/16 15:37:17;;;;;;;17.95;10.02;;;26.70;97.90;;;;;;6162693;28;20298;-66
2022/08/16 15:40:23;;;;;;;17.73;8.98;;;26.70;98.00;;;;;;6163625;28;20203;-66
2022/08/16 15:43:39;;;;;;;19.88;10.15;;;26.80;98.20;;;;;;6163100;28;20306;-67
2022/08/16 15:46:45;;;;;;;10.95;9.82;;;26.80;98.30;;;;;;6163772;28;20278;-67
2022/08/16 15:50:05;;;;;;;18.52;10.40;;;27.00;98.30;;;;;;6162727;29;20287;-66
2022/08/16 15:53:17;;;;;;;13.73;9.63;;;27.10;98.10;;;;;;6163228;28;20298;-65
2022/08/16 15:56:23;;;;;;;11.85;10.40;;;26.90;98.00;;;;;;6163150;29;20290;-67
2022/08/16 15:59:32;;;;;;;17.48;10.15;;;26.80;98.10;;;;;;6162793;28;20311;-66
2022/08/16 16:03:01;;;;;;;10.88;9.70;;;26.80;98.40;;;;;;6163081;28;20295;-68
2022/08/16 16:06:09;;;;;;;17.83;9.93;;;26.80;98.00;;;;;;6163588;29;20535;-67
2022/08/16 16:09:18;;;;;;;13.93;10.00;;;26.80;98.30;;;;;;6174274;28;20322;-67
2022/08/16 16:12:40;;;;;;;13.40;10.55;;;26.90;98.50;;;;;;6186640;28;20294;-67
2022/08/16 16:16:02;;;;;;;13.60;9.90;;;26.80;98.40;;;;;;6186574;28;20294;-68
2022/08/16 16:19:18;;;;;;;15.82;11.45;;;26.80;98.40;;;;;;6186679;28;20297;-66
2022/08/16 16:22:27;;;;;;;22.52;10.18;;;26.80;98.50;;;;;;6186927;28;20293;-68
2022/08/16 16:25:33;;;;;;;11.88;9.55;;;26.70;98.50;;;;;;6187217;28;20273;-66